createdAt,value
2019-05-25T00:01:32.911Z,13.85
2019-05-25T00:04:01.104Z,13.58
2019-05-25T00:06:29.285Z,13.28
2019-05-25T00:08:57.380Z,13.28
2019-05-25T00:11:25.527Z,13.43
2019-05-25T00:13:53.687Z,12.46
2019-05-25T00:16:21.861Z,11.93
2019-05-25T00:18:50.037Z,12.15
2019-05-25T00:21:18.189Z,12.33
2019-05-25T00:23:46.344Z,12.34
2019-05-25T00:26:14.629Z,12.60
2019-05-25T00:28:42.722Z,13.01
2019-05-25T00:31:10.893Z,13.15
2019-05-25T00:33:38.975Z,13.04
2019-05-25T00:36:07.231Z,12.97
2019-05-25T00:38:35.525Z,12.95
2019-05-25T00:41:03.637Z,13.09
2019-05-25T00:43:31.824Z,12.23
2019-05-25T00:46:00.047Z,11.67
2019-05-25T00:48:28.201Z,11.65
2019-05-25T00:50:56.310Z,12.08
2019-05-25T00:53:24.454Z,11.64
2019-05-25T00:55:52.542Z,11.38
2019-05-25T00:58:20.692Z,11.32
2019-05-25T01:00:48.995Z,11.31
2019-05-25T01:03:17.140Z,11.27
2019-05-25T01:05:45.295Z,11.61
2019-05-25T01:08:13.528Z,11.61
2019-05-25T01:10:41.695Z,11.21
2019-05-25T01:13:09.821Z,11.47
2019-05-25T01:15:38.061Z,11.53
2019-05-25T01:18:06.287Z,11.54
2019-05-25T01:20:34.410Z,11.49
2019-05-25T01:23:02.557Z,11.19
2019-05-25T01:25:30.694Z,11.32
2019-05-25T01:27:58.801Z,11.86
2019-05-25T01:30:26.940Z,11.93
2019-05-25T01:32:55.357Z,12.16
2019-05-25T01:35:23.463Z,12.22
2019-05-25T01:37:51.646Z,12.20
2019-05-25T01:40:20.177Z,12.17
2019-05-25T01:42:48.358Z,12.04
2019-05-25T01:45:16.639Z,11.77
2019-05-25T01:47:44.849Z,11.45
2019-05-25T01:50:13.170Z,10.86
2019-05-25T01:52:41.323Z,11.29
2019-05-25T01:55:09.919Z,11.44
2019-05-25T01:57:38.061Z,11.01
2019-05-25T02:00:08.938Z,11.50
2019-05-25T02:02:37.023Z,11.70
2019-05-25T02:05:06.025Z,11.71
2019-05-25T02:07:34.247Z,11.58
2019-05-25T02:10:02.380Z,11.26
2019-05-25T02:12:30.580Z,11.22
2019-05-25T02:14:58.852Z,11.54
2019-05-25T02:17:26.953Z,11.39
2019-05-25T02:19:55.080Z,11.33
2019-05-25T02:22:23.272Z,11.49
2019-05-25T02:24:51.448Z,11.50
2019-05-25T02:27:19.630Z,11.43
2019-05-25T02:29:47.760Z,11.39
2019-05-25T02:32:15.923Z,11.35
2019-05-25T02:34:44.122Z,11.34
2019-05-25T02:37:12.374Z,11.28
2019-05-25T02:39:40.644Z,11.23
2019-05-25T02:42:09.077Z,11.14
2019-05-25T02:44:37.219Z,11.13
2019-05-25T02:47:05.563Z,11.10
2019-05-25T02:49:33.756Z,11.06
2019-05-25T02:52:01.924Z,10.98
2019-05-25T02:54:30.122Z,10.95
2019-05-25T02:56:58.272Z,10.57
2019-05-25T02:59:26.374Z,9.97
2019-05-25T03:01:54.542Z,10.28
2019-05-25T03:04:22.678Z,10.50
2019-05-25T03:06:52.596Z,10.25
2019-05-25T03:09:21.716Z,9.81
2019-05-25T03:11:51.027Z,9.92
2019-05-25T03:14:19.372Z,10.12
2019-05-25T03:16:47.501Z,10.37
2019-05-25T03:19:15.640Z,10.39
2019-05-25T03:21:43.859Z,10.01
2019-05-25T03:24:11.990Z,10.01
2019-05-25T03:26:40.118Z,9.96
2019-05-25T03:29:08.290Z,9.96
2019-05-25T03:31:36.441Z,9.54
2019-05-25T03:34:04.617Z,9.24
2019-05-25T03:36:32.988Z,9.26
2019-05-25T03:39:02.043Z,9.34
2019-05-25T03:41:30.177Z,9.16
2019-05-25T03:43:58.387Z,9.16
2019-05-25T03:46:26.578Z,9.53
2019-05-25T03:48:54.665Z,9.42
2019-05-25T03:51:22.836Z,9.32
2019-05-25T03:53:50.950Z,9.44
2019-05-25T03:56:19.098Z,9.42
2019-05-25T03:58:47.219Z,9.46
2019-05-25T04:01:15.368Z,9.75
2019-05-25T04:03:43.661Z,10.34
2019-05-25T04:06:11.843Z,10.44
2019-05-25T04:08:40.019Z,10.26
2019-05-25T04:11:08.168Z,9.97
2019-05-25T04:13:36.439Z,10.08
2019-05-25T04:16:04.643Z,10.44
2019-05-25T04:18:32.779Z,10.41
2019-05-25T04:21:00.965Z,10.27
2019-05-25T04:23:29.101Z,10.43
2019-05-25T04:25:57.233Z,10.13
2019-05-25T04:28:25.429Z,10.32
2019-05-25T04:30:53.534Z,10.25
2019-05-25T04:33:21.673Z,10.39
2019-05-25T04:35:49.888Z,10.49
2019-05-25T04:38:17.986Z,10.30
2019-05-25T04:40:46.168Z,10.89
2019-05-25T04:43:14.478Z,11.11
2019-05-25T04:45:42.571Z,11.02
2019-05-25T04:48:10.819Z,10.98
2019-05-25T04:50:39.051Z,10.93
2019-05-25T04:53:07.209Z,10.96
2019-05-25T04:55:35.647Z,10.97
2019-05-25T04:58:03.887Z,10.61
2019-05-25T05:00:32.079Z,10.77
2019-05-25T05:05:35.690Z,10.89
2019-05-25T05:08:03.930Z,10.76
2019-05-25T05:10:32.004Z,10.63
2019-05-25T05:13:00.131Z,10.93
2019-05-25T05:15:28.247Z,10.67
2019-05-25T05:17:56.476Z,10.45
2019-05-25T05:20:24.670Z,10.65
2019-05-25T05:22:52.822Z,10.38
2019-05-25T05:25:20.941Z,10.53
2019-05-25T05:27:49.171Z,10.72
2019-05-25T05:30:18.718Z,10.63
2019-05-25T05:32:46.892Z,10.58
2019-05-25T05:35:15.162Z,10.46
2019-05-25T05:38:03.803Z,10.81
2019-05-25T05:40:33.137Z,10.78
2019-05-25T05:43:02.920Z,11.27
2019-05-25T05:45:52.879Z,10.68
2019-05-25T05:48:23.899Z,10.89
2019-05-25T05:50:56.877Z,10.99
2019-05-25T05:53:26.465Z,11.58
2019-05-25T05:55:54.602Z,10.97
2019-05-25T05:58:22.724Z,11.36
2019-05-25T06:00:50.909Z,11.62
2019-05-25T06:03:19.121Z,11.38
2019-05-25T06:05:47.298Z,11.33
2019-05-25T06:08:15.555Z,11.57
2019-05-25T06:10:43.830Z,11.69
2019-05-25T06:13:12.022Z,11.77
2019-05-25T06:15:40.184Z,12.08
2019-05-25T06:18:08.307Z,11.51
2019-05-25T06:20:36.422Z,11.33
2019-05-25T06:23:08.447Z,11.65
2019-05-25T06:25:34.539Z,11.93
2019-05-25T06:28:02.621Z,11.53
2019-05-25T06:30:30.830Z,11.98
2019-05-25T06:32:58.976Z,11.92
2019-05-25T06:35:27.090Z,11.83
2019-05-25T06:37:55.218Z,11.99
2019-05-25T06:40:23.340Z,11.29
2019-05-25T06:42:51.569Z,11.83
2019-05-25T06:45:19.853Z,12.49
2019-05-25T06:47:48.164Z,11.67
2019-05-25T06:50:16.496Z,11.12
2019-05-25T06:52:44.722Z,11.47
2019-05-25T06:55:13.066Z,11.16
2019-05-25T06:57:43.503Z,11.07
2019-05-25T07:00:11.672Z,11.49
2019-05-25T07:02:39.775Z,11.50
2019-05-25T07:05:08.151Z,11.63
2019-05-25T07:07:36.283Z,11.91
2019-05-25T07:10:04.874Z,11.80
2019-05-25T07:12:33.147Z,11.23
2019-05-25T07:15:01.281Z,11.94
2019-05-25T07:17:29.424Z,11.68
2019-05-25T07:19:57.604Z,12.39
2019-05-25T07:22:25.732Z,11.56
2019-05-25T07:24:53.870Z,11.67
2019-05-25T07:27:22.230Z,11.39
2019-05-25T07:29:50.342Z,11.32
2019-05-25T07:32:18.475Z,11.28
2019-05-25T07:34:46.585Z,11.29
2019-05-25T07:37:14.758Z,11.44
2019-05-25T07:39:43.037Z,11.80
2019-05-25T07:42:11.143Z,11.56
2019-05-25T07:44:39.316Z,11.55
2019-05-25T07:47:07.424Z,11.28
2019-05-25T07:49:35.544Z,11.18
2019-05-25T07:52:03.752Z,11.89
2019-05-25T07:54:32.083Z,11.38
2019-05-25T07:57:00.318Z,11.46
2019-05-25T07:59:28.615Z,11.79
2019-05-25T08:01:56.745Z,12.35
2019-05-25T08:04:24.906Z,12.83
2019-05-25T08:06:53.037Z,13.05
2019-05-25T08:09:21.227Z,12.37
2019-05-25T08:11:49.377Z,11.83
2019-05-25T08:14:17.569Z,11.70
2019-05-25T08:16:45.685Z,11.77
2019-05-25T08:19:13.799Z,12.31
2019-05-25T08:21:41.917Z,12.40
2019-05-25T08:24:10.051Z,12.93
2019-05-25T08:26:38.207Z,12.61
2019-05-25T08:29:06.360Z,12.22
2019-05-25T08:31:34.531Z,12.09
2019-05-25T08:34:04.503Z,12.59
2019-05-25T08:36:32.745Z,12.24
2019-05-25T08:39:00.978Z,12.11
2019-05-25T08:41:29.110Z,12.15
2019-05-25T08:43:57.289Z,12.82
2019-05-25T08:46:25.595Z,12.89
2019-05-25T08:48:53.937Z,12.67
2019-05-25T08:51:22.058Z,12.40
2019-05-25T08:53:50.275Z,12.95
2019-05-25T08:56:18.507Z,13.21
2019-05-25T08:58:48.663Z,13.96
2019-05-25T09:01:16.553Z,13.03
2019-05-25T09:03:44.745Z,13.23
2019-05-25T09:06:12.941Z,12.30
2019-05-25T09:08:41.134Z,13.03
2019-05-25T09:11:09.356Z,12.74
2019-05-25T09:13:56.627Z,12.22
2019-05-25T09:16:24.816Z,12.93
2019-05-25T09:18:53.330Z,12.64
2019-05-25T09:21:21.489Z,12.64
2019-05-25T09:23:49.658Z,12.15
2019-05-25T09:26:17.881Z,12.39
2019-05-25T09:28:46.080Z,13.22
2019-05-25T09:31:14.420Z,12.91
2019-05-25T09:33:42.525Z,13.37
2019-05-25T09:36:10.693Z,13.25
2019-05-25T09:38:38.897Z,12.67
2019-05-25T09:41:07.022Z,14.53
2019-05-25T09:43:35.140Z,13.47
2019-05-25T09:46:03.481Z,13.61
2019-05-25T09:48:31.703Z,13.98
2019-05-25T09:50:59.857Z,14.02
2019-05-25T09:53:28.087Z,14.75
2019-05-25T09:55:56.212Z,15.13
2019-05-25T09:58:24.358Z,15.24
2019-05-25T10:00:52.517Z,14.66
2019-05-25T10:03:20.679Z,14.49
2019-05-25T10:05:48.907Z,14.89
2019-05-25T10:08:17.510Z,14.68
2019-05-25T10:10:45.622Z,14.49
2019-05-25T10:13:13.802Z,14.46
2019-05-25T10:15:41.934Z,14.43
2019-05-25T10:18:10.062Z,14.11
2019-05-25T10:20:38.238Z,13.67
2019-05-25T10:23:06.408Z,16.00
2019-05-25T10:25:34.597Z,16.04
2019-05-25T10:28:02.756Z,16.04
2019-05-25T10:30:30.916Z,16.04
2019-05-25T10:32:59.058Z,16.56
2019-05-25T10:35:27.252Z,16.37
2019-05-25T10:37:55.417Z,16.37
2019-05-25T10:40:23.748Z,15.68
2019-05-25T10:42:51.915Z,17.31
2019-05-25T10:45:20.284Z,15.18
2019-05-25T10:47:48.499Z,15.98
2019-05-25T10:50:16.966Z,15.84
2019-05-25T10:52:45.256Z,14.70
2019-05-25T10:55:14.050Z,14.64
2019-05-25T10:57:42.284Z,16.67
2019-05-25T11:00:11.674Z,15.78
2019-05-25T11:02:39.826Z,14.91
2019-05-25T11:05:09.451Z,14.63
2019-05-25T11:07:37.737Z,16.36
2019-05-25T11:10:06.282Z,14.26
2019-05-25T11:12:34.722Z,14.54
2019-05-25T11:15:02.987Z,15.17
2019-05-25T11:17:31.240Z,15.16
2019-05-25T11:19:59.419Z,14.63
2019-05-25T11:22:27.566Z,16.07
2019-05-25T11:24:55.778Z,15.69
2019-05-25T11:27:23.946Z,16.85
2019-05-25T11:30:07.573Z,16.85
2019-05-25T11:32:22.142Z,16.67
2019-05-25T11:34:50.363Z,15.94
2019-05-25T11:37:18.459Z,15.25
2019-05-25T11:39:46.612Z,17.31
2019-05-25T11:42:14.817Z,17.19
2019-05-25T11:44:42.939Z,17.19
2019-05-25T11:47:11.157Z,16.22
2019-05-25T11:49:39.333Z,17.19
2019-05-25T11:52:07.444Z,18.38
2019-05-25T11:54:35.715Z,16.64
2019-05-25T11:57:03.864Z,17.64
2019-05-25T11:59:32.046Z,17.86
2019-05-25T12:02:00.302Z,20.18
2019-05-25T12:04:28.393Z,17.70
2019-05-25T12:06:56.571Z,17.97
2019-05-25T12:09:24.827Z,17.89
2019-05-25T12:11:53.097Z,19.85
2019-05-25T12:14:21.271Z,18.99
2019-05-25T12:16:49.589Z,18.58
2019-05-25T12:19:17.905Z,19.84
2019-05-25T12:21:46.008Z,19.41
2019-05-25T12:24:14.221Z,16.29
2019-05-25T12:26:42.383Z,17.76
2019-05-25T12:29:10.574Z,17.74
2019-05-25T12:31:38.788Z,17.84
2019-05-25T12:34:07.029Z,16.92
2019-05-25T12:36:35.213Z,17.41
2019-05-25T12:39:04.186Z,20.22
2019-05-25T12:41:32.440Z,21.09
2019-05-25T12:44:00.747Z,18.97
2019-05-25T12:46:29.089Z,19.77
2019-05-25T12:48:57.337Z,18.32
2019-05-25T12:51:25.589Z,17.64
2019-05-25T12:53:53.729Z,17.34
2019-05-25T12:56:22.184Z,18.29
2019-05-25T12:58:50.433Z,17.06
2019-05-25T13:01:18.678Z,18.09
2019-05-25T13:03:47.093Z,18.57
2019-05-25T13:06:18.195Z,20.42
2019-05-25T13:08:44.408Z,19.42
2019-05-25T13:11:12.585Z,20.87
2019-05-25T13:13:40.732Z,22.85
2019-05-25T13:16:09.043Z,22.31
2019-05-25T13:18:37.273Z,19.41
2019-05-25T13:21:05.686Z,18.15
2019-05-25T13:23:33.869Z,18.42
2019-05-25T13:26:02.056Z,18.14
2019-05-25T13:28:30.228Z,19.08
2019-05-25T13:31:10.822Z,18.96
2019-05-25T13:33:28.358Z,17.06
2019-05-25T13:35:56.498Z,17.04
2019-05-25T13:38:24.686Z,17.66
2019-05-25T13:40:52.898Z,19.43
2019-05-25T13:43:21.159Z,19.27
2019-05-25T13:45:49.388Z,17.17
2019-05-25T13:48:17.545Z,16.09
2019-05-25T13:50:45.964Z,17.21
2019-05-25T13:53:14.080Z,16.14
2019-05-25T13:55:42.333Z,18.78
2019-05-25T13:58:10.480Z,16.85
2019-05-25T14:00:38.693Z,17.35
2019-05-25T14:03:06.942Z,18.04
2019-05-25T14:05:35.153Z,18.52
2019-05-25T14:08:03.351Z,18.05
2019-05-25T14:10:31.564Z,19.00
2019-05-25T14:13:01.830Z,18.14
2019-05-25T14:15:29.673Z,16.50
2019-05-25T14:17:58.279Z,19.95
2019-05-25T14:20:27.088Z,18.22
2019-05-25T14:22:55.290Z,19.04
2019-05-25T14:25:23.505Z,19.61
2019-05-25T14:27:51.685Z,20.19
2019-05-25T14:30:19.900Z,19.94
2019-05-25T14:32:48.036Z,21.88
2019-05-25T14:35:16.205Z,20.68
2019-05-25T14:37:44.564Z,21.50
2019-05-25T14:40:13.766Z,19.45
2019-05-25T14:42:41.928Z,19.20
2019-05-25T14:45:10.757Z,18.67
2019-05-25T14:47:39.017Z,19.35
2019-05-25T14:50:07.681Z,18.84
2019-05-25T14:52:35.945Z,20.47
2019-05-25T14:55:04.354Z,21.40
2019-05-25T14:57:32.601Z,23.66
2019-05-25T15:00:00.890Z,22.28
2019-05-25T15:02:29.095Z,21.93
2019-05-25T15:04:57.215Z,22.19
2019-05-25T15:07:25.450Z,23.94
2019-05-25T15:09:53.643Z,19.56
2019-05-25T15:12:21.970Z,23.67
2019-05-25T15:14:50.137Z,22.57
2019-05-25T15:17:18.401Z,24.71
2019-05-25T15:19:46.555Z,24.40
2019-05-25T15:22:14.900Z,19.14
2019-05-25T15:24:43.183Z,21.98
2019-05-25T15:27:11.480Z,19.41
2019-05-25T15:29:39.717Z,23.30
2019-05-25T15:32:19.466Z,21.00
2019-05-25T15:34:37.964Z,22.71
2019-05-25T15:37:06.352Z,22.87
2019-05-25T15:39:34.524Z,21.16
2019-05-25T15:42:02.671Z,23.24
2019-05-25T15:44:30.959Z,24.99
2019-05-25T15:46:59.308Z,22.79
2019-05-25T15:49:33.472Z,23.84
2019-05-25T15:51:57.472Z,22.41
2019-05-25T15:54:25.626Z,22.83
2019-05-25T15:56:53.829Z,22.75
2019-05-25T15:59:23.623Z,20.26
2019-05-25T16:01:52.028Z,21.74
2019-05-25T16:04:20.356Z,21.60
2019-05-25T16:06:50.616Z,19.79
2019-05-25T16:09:18.892Z,19.51
2019-05-25T16:11:47.196Z,19.33
2019-05-25T16:14:15.391Z,21.86
2019-05-25T16:16:43.595Z,21.24
2019-05-25T16:19:11.768Z,18.91
2019-05-25T16:21:39.953Z,20.42
2019-05-25T16:24:08.404Z,21.29
2019-05-25T16:26:45.661Z,21.06
2019-05-25T16:29:05.532Z,18.57
2019-05-25T16:31:33.729Z,20.09
2019-05-25T16:34:01.864Z,19.12
2019-05-25T16:36:30.128Z,19.14
2019-05-25T16:38:58.470Z,19.83
2019-05-25T16:41:26.669Z,20.10
2019-05-25T16:43:54.925Z,18.71
2019-05-25T16:46:23.127Z,19.03
2019-05-25T16:48:51.383Z,18.90
2019-05-25T16:51:19.606Z,18.50
2019-05-25T16:53:47.751Z,18.91
2019-05-25T16:56:15.954Z,20.79
2019-05-25T16:58:44.191Z,18.07
2019-05-25T17:01:12.457Z,17.54
2019-05-25T17:03:40.638Z,18.17
2019-05-25T17:06:08.765Z,18.92
2019-05-25T17:08:36.970Z,19.73
2019-05-25T17:11:05.248Z,18.06
2019-05-25T17:13:33.523Z,19.72
2019-05-25T17:16:01.694Z,19.08
2019-05-25T17:18:29.970Z,20.25
2019-05-25T17:20:58.167Z,20.20
2019-05-25T17:23:26.498Z,18.93
2019-05-25T17:25:54.740Z,21.03
2019-05-25T17:28:22.937Z,20.37
2019-05-25T17:30:51.136Z,21.21
2019-05-25T17:33:19.330Z,21.63
2019-05-25T17:35:47.872Z,21.81
2019-05-25T17:38:16.121Z,22.12
2019-05-25T17:40:44.360Z,22.04
2019-05-25T17:43:12.573Z,20.71
2019-05-25T17:45:40.719Z,20.65
2019-05-25T17:48:08.968Z,19.44
2019-05-25T17:50:37.334Z,20.16
2019-05-25T17:53:05.648Z,21.01
2019-05-25T17:55:33.844Z,21.53
2019-05-25T17:58:02.349Z,21.28
2019-05-25T18:00:39.297Z,20.92
2019-05-25T18:03:07.502Z,21.32
2019-05-25T18:05:35.766Z,21.27
2019-05-25T18:08:04.288Z,21.18
2019-05-25T18:10:32.538Z,21.06
2019-05-25T18:13:01.936Z,20.96
2019-05-25T18:15:30.098Z,20.85
2019-05-25T18:17:58.395Z,20.74
2019-05-25T18:20:26.558Z,20.39
2019-05-25T18:22:54.826Z,20.43
2019-05-25T18:25:22.956Z,18.01
2019-05-25T18:27:51.319Z,19.40
2019-05-25T18:30:20.556Z,19.73
2019-05-25T18:32:48.950Z,19.75
2019-05-25T18:35:17.324Z,19.26
2019-05-25T18:37:45.530Z,19.35
2019-05-25T18:40:13.974Z,19.29
2019-05-25T18:42:42.161Z,18.48
2019-05-25T18:45:10.341Z,18.75
2019-05-25T18:47:38.542Z,18.87
2019-05-25T18:50:07.330Z,18.89
2019-05-25T18:52:35.669Z,18.79
2019-05-25T18:55:04.027Z,18.61
2019-05-25T18:57:32.262Z,18.22
2019-05-25T19:00:00.524Z,18.26
2019-05-25T19:02:28.852Z,18.18
2019-05-25T19:04:59.804Z,16.75
2019-05-25T19:07:26.044Z,16.88
2019-05-25T19:09:54.320Z,17.09
2019-05-25T19:12:22.511Z,17.23
2019-05-25T19:14:50.737Z,17.16
2019-05-25T19:17:18.952Z,17.36
2019-05-25T19:19:47.208Z,17.30
2019-05-25T19:22:15.465Z,17.06
2019-05-25T19:24:43.663Z,17.02
2019-05-25T19:27:12.067Z,16.46
2019-05-25T19:29:40.331Z,15.95
2019-05-25T19:32:08.586Z,16.26
2019-05-25T19:34:36.757Z,15.79
2019-05-25T19:37:04.967Z,16.10
2019-05-25T19:39:33.158Z,15.63
2019-05-25T19:42:01.341Z,15.98
2019-05-25T19:44:29.530Z,16.03
2019-05-25T19:46:57.804Z,15.93
2019-05-25T19:49:26.163Z,15.40
2019-05-25T19:51:54.309Z,15.40
2019-05-25T19:54:22.561Z,14.91
2019-05-25T19:56:50.831Z,15.20
2019-05-25T19:59:19.334Z,15.27
2019-05-25T20:01:47.521Z,15.27
2019-05-25T20:04:15.794Z,14.34
2019-05-25T20:06:43.939Z,14.72
2019-05-25T20:09:12.122Z,14.77
2019-05-25T20:11:40.309Z,14.85
2019-05-25T20:14:08.585Z,14.81
2019-05-25T20:16:36.939Z,14.78
2019-05-25T20:19:05.277Z,14.67
2019-05-25T20:21:33.538Z,14.47
2019-05-25T20:24:01.690Z,14.41
2019-05-25T20:26:29.856Z,14.38
2019-05-25T20:28:58.053Z,14.34
2019-05-25T20:31:26.751Z,14.21
2019-05-25T20:33:54.912Z,14.07
2019-05-25T20:36:23.133Z,14.01
2019-05-25T20:38:51.371Z,13.90
2019-05-25T20:41:19.628Z,13.84
2019-05-25T20:43:47.819Z,13.69
2019-05-25T20:46:15.996Z,13.57
2019-05-25T20:48:44.214Z,13.36
2019-05-25T20:51:12.332Z,13.33
2019-05-25T20:53:40.540Z,13.38
2019-05-25T20:56:08.731Z,13.28
2019-05-25T20:58:39.122Z,13.25
2019-05-25T21:01:06.772Z,12.39
2019-05-25T21:03:34.953Z,12.89
2019-05-25T21:06:03.180Z,12.97
2019-05-25T21:08:31.356Z,12.91
2019-05-25T21:10:59.608Z,12.88
2019-05-25T21:13:27.823Z,12.79
2019-05-25T21:15:56.348Z,12.73
2019-05-25T21:18:24.494Z,12.70
2019-05-25T21:20:52.716Z,12.58
2019-05-25T21:23:20.894Z,12.51
2019-05-25T21:25:49.097Z,12.44
2019-05-25T21:28:17.353Z,12.41
2019-05-25T21:30:45.544Z,12.34
2019-05-25T21:33:13.763Z,12.28
2019-05-25T21:35:41.978Z,12.20
2019-05-25T21:38:10.159Z,12.11
2019-05-25T21:40:38.373Z,12.00
2019-05-25T21:43:06.571Z,11.98
2019-05-25T21:45:34.805Z,11.93
2019-05-25T21:48:02.985Z,11.90
2019-05-25T21:50:31.272Z,11.87
2019-05-25T21:53:01.635Z,11.76
2019-05-25T21:55:29.522Z,11.70
2019-05-25T21:57:57.706Z,11.64
2019-05-25T22:00:28.122Z,11.55
2019-05-25T22:03:02.132Z,11.51
2019-05-25T22:05:31.055Z,11.33
2019-05-25T22:07:59.311Z,11.35
2019-05-25T22:10:27.420Z,11.33
2019-05-25T22:12:55.606Z,11.27
2019-05-25T22:15:23.742Z,11.19
2019-05-25T22:17:52.198Z,11.15
2019-05-25T22:20:20.987Z,11.10
2019-05-25T22:22:49.179Z,11.05
2019-05-25T22:25:17.438Z,10.96
2019-05-25T22:27:45.726Z,10.91
2019-05-25T22:30:14.343Z,10.84
2019-05-25T22:32:43.256Z,10.77
2019-05-25T22:35:11.734Z,10.58
2019-05-25T22:37:39.890Z,10.52
2019-05-25T22:40:08.353Z,10.40
2019-05-25T22:42:36.502Z,10.40
2019-05-25T22:45:05.105Z,10.44
2019-05-25T22:47:33.297Z,10.28
2019-05-25T22:50:01.398Z,10.33
2019-05-25T22:52:29.618Z,10.34
2019-05-25T22:54:57.730Z,10.27
2019-05-25T22:57:25.835Z,10.23
2019-05-25T22:59:54.020Z,10.22
2019-05-25T23:02:22.156Z,10.14
2019-05-25T23:04:50.294Z,10.15
2019-05-25T23:07:18.422Z,10.10
2019-05-25T23:09:46.565Z,10.05
2019-05-25T23:12:16.468Z,10.01
2019-05-25T23:14:44.647Z,9.97
2019-05-25T23:17:12.887Z,9.92
2019-05-25T23:19:40.994Z,9.91
2019-05-25T23:22:09.165Z,9.84
2019-05-25T23:24:37.413Z,9.78
2019-05-25T23:27:05.543Z,9.76
2019-05-25T23:29:33.653Z,9.73
2019-05-25T23:32:01.837Z,9.68
2019-05-25T23:34:30.568Z,9.66
2019-05-25T23:37:13.563Z,9.61
2019-05-25T23:39:29.051Z,9.57
2019-05-25T23:41:57.691Z,9.42
2019-05-25T23:44:26.139Z,9.49
2019-05-25T23:46:54.938Z,9.34
2019-05-25T23:49:23.078Z,9.25
2019-05-25T23:51:51.499Z,8.65
2019-05-25T23:54:19.883Z,9.17
2019-05-25T23:56:48.086Z,9.18
2019-05-25T23:59:16.327Z,9.00
